METAR EVRA 171250Z 34010KT CAVOK 21/14 Q1017 NOSIG =

Annual Statistics - Baltic Airports

(Click the images to zoom in)


Annual Traffic Trends, 2010-2018

 


Total Traffic Statistics (2010-2019) - last updated 25th April 2019

Controllers Online

PositionControllerOnline
No controllers currently online

Booked ATC Today

No ATC booked yet.
Be the first for today!
* Times are UTC

The time is now

UTC: 

Local: 

Latvia vACC on twitter

Official vACC of:

  

Latvia vACC on Facebook